sensor_id;sensor_type;location;lat;lon;timestamp;pressure;altitude;pressure_sealevel;temperature;humidity
46718;BME280;32448;44.960;-0.698;2022-10-18T03:01:45;101944.84;;;15.08;100.00
46718;BME280;32448;44.960;-0.698;2022-10-18T03:04:12;101959.78;;;15.09;100.00
46718;BME280;32448;44.960;-0.698;2022-10-18T03:06:40;101951.78;;;15.05;100.00
46718;BME280;32448;44.960;-0.698;2022-10-18T03:09:08;101942.97;;;15.01;100.00
46718;BME280;32448;44.960;-0.698;2022-10-18T03:11:35;101940.31;;;15.00;100.00
46718;BME280;32448;44.960;-0.698;2022-10-18T03:14:02;101944.78;;;15.05;100.00
46718;BME280;32448;44.960;-0.698;2022-10-18T03:16:29;101945.56;;;15.00;100.00
46718;BME280;32448;44.960;-0.698;2022-10-18T03:18:57;101929.56;;;14.87;100.00
46718;BME280;32448;44.960;-0.698;2022-10-18T03:21:24;101922.63;;;14.92;100.00
46718;BME280;32448;44.960;-0.698;2022-10-18T03:23:51;101941.16;;;14.99;100.00
46718;BME280;32448;44.960;-0.698;2022-10-18T03:26:18;101954.44;;;15.05;100.00
46718;BME280;32448;44.960;-0.698;2022-10-18T03:28:47;101943.84;;;15.00;100.00
46718;BME280;32448;44.960;-0.698;2022-10-18T03:31:14;101941.06;;;14.94;100.00
46718;BME280;32448;44.960;-0.698;2022-10-18T03:33:41;101960.59;;;15.07;100.00
46718;BME280;32448;44.960;-0.698;2022-10-18T03:36:08;101949.97;;;15.01;100.00
46718;BME280;32448;44.960;-0.698;2022-10-18T03:38:36;101957.91;;;15.04;100.00
46718;BME280;32448;44.960;-0.698;2022-10-18T03:41:03;101948.19;;;14.98;100.00
46718;BME280;32448;44.960;-0.698;2022-10-18T03:43:30;101940.22;;;14.95;100.00
46718;BME280;32448;44.960;-0.698;2022-10-18T03:45:57;101966.66;;;15.03;100.00
46718;BME280;32448;44.960;-0.698;2022-10-18T03:48:24;101961.38;;;15.00;100.00
46718;BME280;32448;44.960;-0.698;2022-10-18T03:50:52;101974.56;;;15.03;100.00
46718;BME280;32448;44.960;-0.698;2022-10-18T03:53:19;101956.91;;;14.96;100.00
46718;BME280;32448;44.960;-0.698;2022-10-18T03:55:53;101945.28;;;14.84;100.00
46718;BME280;32448;44.960;-0.698;2022-10-18T03:58:22;101952.44;;;14.91;100.00
46718;BME280;32448;44.960;-0.698;2022-10-18T04:00:54;101967.47;;;14.97;100.00
46718;BME280;32448;44.960;-0.698;2022-10-18T04:03:22;101965.63;;;14.93;100.00
46718;BME280;32448;44.960;-0.698;2022-10-18T04:05:49;101969.16;;;14.93;100.00
46718;BME280;32448;44.960;-0.698;2022-10-18T04:08:19;101964.72;;;14.92;100.00
46718;BME280;32448;44.960;-0.698;2022-10-18T04:10:47;101965.69;;;14.96;100.00
46718;BME280;32448;44.960;-0.698;2022-10-18T04:13:18;101965.69;;;14.96;100.00
46718;BME280;32448;44.960;-0.698;2022-10-18T04:15:45;101966.47;;;14.92;100.00
46718;BME280;32448;44.960;-0.698;2022-10-18T04:18:12;101963.84;;;14.90;100.00
46718;BME280;32448;44.960;-0.698;2022-10-18T04:20:39;101973.56;;;14.94;100.00
46718;BME280;32448;44.960;-0.698;2022-10-18T04:23:06;101962.81;;;14.84;100.00
46718;BME280;32448;44.960;-0.698;2022-10-18T04:25:33;101960.13;;;14.79;100.00
46718;BME280;32448;44.960;-0.698;2022-10-18T04:28:00;101953.13;;;14.81;100.00
46718;BME280;32448;44.960;-0.698;2022-10-18T04:30:28;101980.56;;;14.94;100.00
46718;BME280;32448;44.960;-0.698;2022-10-18T04:32:55;101966.34;;;14.84;100.00
46718;BME280;32448;44.960;-0.698;2022-10-18T04:35:22;101955.78;;;14.83;100.00
46718;BME280;32448;44.960;-0.698;2022-10-18T04:37:51;101970.00;;;14.91;100.00
46718;BME280;32448;44.960;-0.698;2022-10-18T04:40:19;101968.22;;;14.90;100.00
46718;BME280;32448;44.960;-0.698;2022-10-18T04:42:46;101968.16;;;14.87;100.00
46718;BME280;32448;44.960;-0.698;2022-10-18T04:45:13;101960.16;;;14.82;100.00
46718;BME280;32448;44.960;-0.698;2022-10-18T04:47:40;101956.59;;;14.79;100.00
46718;BME280;32448;44.960;-0.698;2022-10-18T04:50:07;101964.56;;;14.83;100.00
46718;BME280;32448;44.960;-0.698;2022-10-18T04:52:35;101969.81;;;14.82;100.00
46718;BME280;32448;44.960;-0.698;2022-10-18T04:55:02;101949.44;;;14.72;100.00
46718;BME280;32448;44.960;-0.698;2022-10-18T04:57:29;101977.75;;;14.85;100.00
46718;BME280;32448;44.960;-0.698;2022-10-18T04:59:57;101957.44;;;14.76;100.00
46718;BME280;32448;44.960;-0.698;2022-10-18T05:02:25;101968.13;;;14.85;100.00
46718;BME280;32448;44.960;-0.698;2022-10-18T05:04:52;101942.59;;;14.80;100.00
46718;BME280;32448;44.960;-0.698;2022-10-18T05:07:19;101949.63;;;14.82;100.00
46718;BME280;32448;44.960;-0.698;2022-10-18T05:09:46;101962.13;;;14.94;100.00
46718;BME280;32448;44.960;-0.698;2022-10-18T05:12:13;101960.38;;;14.94;100.00
46718;BME280;32448;44.960;-0.698;2022-10-18T05:14:40;101960.53;;;15.04;100.00
46718;BME280;32448;44.960;-0.698;2022-10-18T05:17:07;101933.28;;;14.99;100.00
46718;BME280;32448;44.960;-0.698;2022-10-18T05:19:35;101943.03;;;15.06;100.00
46718;BME280;32448;44.960;-0.698;2022-10-18T05:22:02;101953.72;;;15.15;100.00
46718;BME280;32448;44.960;-0.698;2022-10-18T05:24:29;101961.75;;;15.21;100.00
46718;BME280;32448;44.960;-0.698;2022-10-18T05:26:56;101959.94;;;15.18;100.00
46718;BME280;32448;44.960;-0.698;2022-10-18T05:29:24;101961.59;;;15.12;100.00
46718;BME280;32448;44.960;-0.698;2022-10-18T05:31:56;101967.69;;;15.09;100.00
46718;BME280;32448;44.960;-0.698;2022-10-18T05:34:23;101969.41;;;15.07;100.00
46718;BME280;32448;44.960;-0.698;2022-10-18T05:36:53;101966.75;;;15.07;100.00
46718;BME280;32448;44.960;-0.698;2022-10-18T05:39:20;101960.34;;;14.93;100.00
46718;BME280;32448;44.960;-0.698;2022-10-18T05:41:47;101964.94;;;15.03;100.00
46718;BME280;32448;44.960;-0.698;2022-10-18T05:44:14;101969.38;;;15.06;100.00
46718;BME280;32448;44.960;-0.698;2022-10-18T05:46:41;101965.63;;;14.93;100.00
46718;BME280;32448;44.960;-0.698;2022-10-18T05:49:12;101912.47;;;14.64;100.00
46718;BME280;32448;44.960;-0.698;2022-10-18T05:51:39;101953.31;;;14.90;100.00
46718;BME280;32448;44.960;-0.698;2022-10-18T05:54:06;101951.47;;;14.86;100.00
46718;BME280;32448;44.960;-0.698;2022-10-18T05:56:35;101938.16;;;14.77;100.00
46718;BME280;32448;44.960;-0.698;2022-10-18T05:59:02;101939.91;;;14.77;100.00
46718;BME280;32448;44.960;-0.698;2022-10-18T06:01:39;101970.81;;;14.88;100.00
46718;BME280;32448;44.960;-0.698;2022-10-18T06:04:07;101972.53;;;14.86;100.00
46718;BME280;32448;44.960;-0.698;2022-10-18T06:06:36;101970.75;;;14.85;100.00
46718;BME280;32448;44.960;-0.698;2022-10-18T06:09:05;101946.91;;;14.76;100.00
46718;BME280;32448;44.960;-0.698;2022-10-18T06:11:35;101959.25;;;14.80;100.00
46718;BME280;32448;44.960;-0.698;2022-10-18T06:14:02;101967.09;;;14.77;100.00
46718;BME280;32448;44.960;-0.698;2022-10-18T06:16:30;101963.63;;;14.78;100.00
46718;BME280;32448;44.960;-0.698;2022-10-18T06:18:58;101964.50;;;14.79;100.00
46718;BME280;32448;44.960;-0.698;2022-10-18T06:21:26;101962.75;;;14.81;100.00
46718;BME280;32448;44.960;-0.698;2022-10-18T06:23:56;101955.66;;;14.75;100.00
46718;BME280;32448;44.960;-0.698;2022-10-18T06:26:25;101953.88;;;14.74;100.00
46718;BME280;32448;44.960;-0.698;2022-10-18T06:28:52;101959.22;;;14.77;100.00
46718;BME280;32448;44.960;-0.698;2022-10-18T06:31:20;101955.69;;;14.77;100.00
46718;BME280;32448;44.960;-0.698;2022-10-18T06:33:47;101929.13;;;14.65;100.00
46718;BME280;32448;44.960;-0.698;2022-10-18T06:36:16;101963.75;;;14.86;100.00
46718;BME280;32448;44.960;-0.698;2022-10-18T06:38:44;101962.78;;;14.82;100.00
46718;BME280;32448;44.960;-0.698;2022-10-18T06:41:12;101958.50;;;14.87;100.00
46718;BME280;32448;44.960;-0.698;2022-10-18T06:43:39;101969.97;;;14.89;100.00
46718;BME280;32448;44.960;-0.698;2022-10-18T06:46:07;101943.44;;;14.79;100.00
46718;BME280;32448;44.960;-0.698;2022-10-18T06:48:35;101955.06;;;14.91;100.00
46718;BME280;32448;44.960;-0.698;2022-10-18T06:51:04;101956.84;;;14.92;100.00
46718;BME280;32448;44.960;-0.698;2022-10-18T06:53:34;101941.03;;;14.91;100.00
46718;BME280;32448;44.960;-0.698;2022-10-18T06:56:14;101971.22;;;15.10;100.00
46718;BME280;32448;44.960;-0.698;2022-10-18T06:58:41;101955.41;;;15.10;100.00
46718;BME280;32448;44.960;-0.698;2022-10-18T07:01:13;101951.19;;;15.19;100.00
46718;BME280;32448;44.960;-0.698;2022-10-18T07:03:42;101951.16;;;15.18;100.00
46718;BME280;32448;44.960;-0.698;2022-10-18T07:06:11;101950.22;;;15.16;100.00
46718;BME280;32448;44.960;-0.698;2022-10-18T07:08:39;101914.72;;;14.92;100.00
46718;BME280;32448;44.960;-0.698;2022-10-18T07:11:07;101954.81;;;15.27;100.00
46718;BME280;32448;44.960;-0.698;2022-10-18T07:13:39;101952.34;;;15.38;100.00
46718;BME280;32448;44.960;-0.698;2022-10-18T07:16:09;101953.28;;;15.40;100.00
46718;BME280;32448;44.960;-0.698;2022-10-18T07:18:44;101962.25;;;15.51;100.00
46718;BME280;32448;44.960;-0.698;2022-10-18T07:21:16;101957.78;;;15.46;100.00
46718;BME280;32448;44.960;-0.698;2022-10-18T07:23:44;101955.19;;;15.50;100.00
46718;BME280;32448;44.960;-0.698;2022-10-18T07:26:24;101938.44;;;15.47;100.00
46718;BME280;32448;44.960;-0.698;2022-10-18T07:28:55;101930.63;;;15.51;100.00
46718;BME280;32448;44.960;-0.698;2022-10-18T07:31:23;101957.19;;;15.63;100.00
46718;BME280;32448;44.960;-0.698;2022-10-18T07:33:51;101957.16;;;15.62;100.00
46718;BME280;32448;44.960;-0.698;2022-10-18T07:36:19;101956.31;;;15.63;100.00
46718;BME280;32448;44.960;-0.698;2022-10-18T07:38:48;101954.56;;;15.63;100.00
46718;BME280;32448;44.960;-0.698;2022-10-18T07:41:15;101966.81;;;15.61;100.00
46718;BME280;32448;44.960;-0.698;2022-10-18T07:43:47;101962.53;;;15.67;100.00
46718;BME280;32448;44.960;-0.698;2022-10-18T07:46:14;101976.69;;;15.75;100.00
46718;BME280;32448;44.960;-0.698;2022-10-18T07:48:42;101973.16;;;15.74;100.00
46718;BME280;32448;44.960;-0.698;2022-10-18T07:51:10;101980.47;;;15.93;100.00
46718;BME280;32448;44.960;-0.698;2022-10-18T07:53:37;101971.81;;;16.03;100.00
46718;BME280;32448;44.960;-0.698;2022-10-18T07:56:07;101966.56;;;16.03;100.00
46718;BME280;32448;44.960;-0.698;2022-10-18T07:58:37;101954.31;;;16.09;100.00
46718;BME280;32448;44.960;-0.698;2022-10-18T08:01:05;101965.94;;;16.24;100.00
46718;BME280;32448;44.960;-0.698;2022-10-18T08:03:33;101986.53;;;16.53;100.00
46718;BME280;32448;44.960;-0.698;2022-10-18T08:06:02;101973.31;;;16.51;100.00
46718;BME280;32448;44.960;-0.698;2022-10-18T08:08:29;101966.16;;;16.41;100.00
46718;BME280;32448;44.960;-0.698;2022-10-18T08:13:41;101985.59;;;16.48;100.00
46718;BME280;32448;44.960;-0.698;2022-10-18T08:16:13;101964.31;;;16.35;100.00
46718;BME280;32448;44.960;-0.698;2022-10-18T08:18:41;101977.69;;;16.48;100.00
46718;BME280;32448;44.960;-0.698;2022-10-18T08:21:10;101968.94;;;16.52;100.00
46718;BME280;32448;44.960;-0.698;2022-10-18T08:23:38;101957.50;;;16.51;100.00
46718;BME280;32448;44.960;-0.698;2022-10-18T08:26:08;101977.97;;;16.70;100.00
46718;BME280;32448;44.960;-0.698;2022-10-18T08:28:36;101975.44;;;16.80;100.00
46718;BME280;32448;44.960;-0.698;2022-10-18T08:31:09;101976.34;;;16.83;100.00
46718;BME280;32448;44.960;-0.698;2022-10-18T08:33:38;101973.84;;;16.95;100.00
46718;BME280;32448;44.960;-0.698;2022-10-18T08:36:07;101971.28;;;17.03;100.00
46718;BME280;32448;44.960;-0.698;2022-10-18T08:38:36;101968.75;;;17.17;100.00
46718;BME280;32448;44.960;-0.698;2022-10-18T08:41:29;101969.84;;;17.38;100.00
46718;BME280;32448;44.960;-0.698;2022-10-18T08:46:36;101964.66;;;17.51;100.00
46718;BME280;32448;44.960;-0.698;2022-10-18T08:49:05;101954.00;;;17.40;100.00
46718;BME280;32448;44.960;-0.698;2022-10-18T08:51:44;101969.09;;;17.59;100.00
46718;BME280;32448;44.960;-0.698;2022-10-18T08:54:41;101975.34;;;17.63;100.00
46718;BME280;32448;44.960;-0.698;2022-10-18T08:57:13;101963.91;;;17.68;100.00
46718;BME280;32448;44.960;-0.698;2022-10-18T08:59:44;101967.50;;;17.73;100.00
46718;BME280;32448;44.960;-0.698;2022-10-18T09:05:26;101979.91;;;17.90;100.00
46718;BME280;32448;44.960;-0.698;2022-10-18T09:08:11;101988.81;;;18.02;100.00
46718;BME280;32448;44.960;-0.698;2022-10-18T09:16:33;101973.94;;;18.26;100.00
46718;BME280;32448;44.960;-0.698;2022-10-18T09:24:33;101959.91;;;18.40;100.00
46718;BME280;32448;44.960;-0.698;2022-10-18T09:27:08;101964.34;;;18.47;100.00
46718;BME280;32448;44.960;-0.698;2022-10-18T09:30:02;101962.69;;;18.66;100.00
46718;BME280;32448;44.960;-0.698;2022-10-18T09:32:49;101934.44;;;18.65;100.00
46718;BME280;32448;44.960;-0.698;2022-10-18T09:35:22;101954.78;;;18.86;100.00
46718;BME280;32448;44.960;-0.698;2022-10-18T09:37:54;101957.44;;;18.97;100.00
46718;BME280;32448;44.960;-0.698;2022-10-18T09:40:27;101952.16;;;19.06;100.00
46718;BME280;32448;44.960;-0.698;2022-10-18T09:43:02;101897.34;;;19.00;100.00
46718;BME280;32448;44.960;-0.698;2022-10-18T09:45:38;101931.81;;;19.12;100.00
46718;BME280;32448;44.960;-0.698;2022-10-18T09:48:12;101912.38;;;19.12;100.00
46718;BME280;32448;44.960;-0.698;2022-10-18T09:50:51;101949.50;;;19.39;100.00
46718;BME280;32448;44.960;-0.698;2022-10-18T09:56:17;101941.56;;;19.65;100.00
46718;BME280;32448;44.960;-0.698;2022-10-18T09:58:48;101913.25;;;19.64;100.00
46718;BME280;32448;44.960;-0.698;2022-10-18T10:01:23;101928.25;;;19.77;100.00
46718;BME280;32448;44.960;-0.698;2022-10-18T10:03:51;101924.69;;;19.81;100.00
46718;BME280;32448;44.960;-0.698;2022-10-18T10:06:22;101933.50;;;19.92;100.00
46718;BME280;32448;44.960;-0.698;2022-10-18T10:08:59;101931.66;;;20.13;100.00
46718;BME280;32448;44.960;-0.698;2022-10-18T10:11:37;101927.25;;;20.16;100.00
46718;BME280;32448;44.960;-0.698;2022-10-18T10:14:18;101913.91;;;20.25;100.00
46718;BME280;32448;44.960;-0.698;2022-10-18T10:17:00;101914.81;;;20.30;100.00
46718;BME280;32448;44.960;-0.698;2022-10-18T10:19:36;101907.69;;;20.43;100.00
46718;BME280;32448;44.960;-0.698;2022-10-18T10:22:11;101913.81;;;20.53;100.00
46718;BME280;32448;44.960;-0.698;2022-10-18T10:24:50;101904.97;;;20.49;100.00
46718;BME280;32448;44.960;-0.698;2022-10-18T10:27:31;101889.81;;;20.68;100.00
46718;BME280;32448;44.960;-0.698;2022-10-18T10:30:03;101875.63;;;20.70;100.00
46718;BME280;32448;44.960;-0.698;2022-10-18T10:32:49;101898.38;;;21.06;100.00
46718;BME280;32448;44.960;-0.698;2022-10-18T10:35:39;101898.38;;;21.06;100.00
46718;BME280;32448;44.960;-0.698;2022-10-18T10:38:26;101903.63;;;21.13;100.00
46718;BME280;32448;44.960;-0.698;2022-10-18T10:40:55;101885.06;;;21.08;100.00
46718;BME280;32448;44.960;-0.698;2022-10-18T10:43:27;101899.19;;;21.15;100.00
46718;BME280;32448;44.960;-0.698;2022-10-18T10:46:11;101900.97;;;21.16;100.00
46718;BME280;32448;44.960;-0.698;2022-10-18T10:51:12;101889.41;;;21.21;100.00
46718;BME280;32448;44.960;-0.698;2022-10-18T10:53:47;101863.69;;;21.23;100.00
46718;BME280;32448;44.960;-0.698;2022-10-18T10:56:24;101880.38;;;21.40;100.00
46718;BME280;32448;44.960;-0.698;2022-10-18T10:58:55;101890.03;;;21.49;100.00
46718;BME280;32448;44.960;-0.698;2022-10-18T11:01:30;101859.00;;;21.50;100.00
46718;BME280;32448;44.960;-0.698;2022-10-18T11:04:01;101858.00;;;21.58;100.00
46718;BME280;32448;44.960;-0.698;2022-10-18T11:06:45;101873.56;;;21.95;100.00
46718;BME280;32448;44.960;-0.698;2022-10-18T11:09:23;101873.56;;;21.95;100.00
46718;BME280;32448;44.960;-0.698;2022-10-18T11:14:56;101838.84;;;22.04;100.00
46718;BME280;32448;44.960;-0.698;2022-10-18T11:17:34;101856.34;;;22.22;100.00
46718;BME280;32448;44.960;-0.698;2022-10-18T11:23:10;101849.97;;;22.33;100.00
46718;BME280;32448;44.960;-0.698;2022-10-18T11:40:07;101820.41;;;22.50;100.00
46718;BME280;32448;44.960;-0.698;2022-10-18T11:46:08;101816.19;;;22.37;100.00
46718;BME280;32448;44.960;-0.698;2022-10-18T11:51:34;101800.31;;;22.29;100.00
46718;BME280;32448;44.960;-0.698;2022-10-18T11:54:57;101791.34;;;22.35;100.00
46718;BME280;32448;44.960;-0.698;2022-10-18T12:00:31;101775.56;;;22.78;100.00
46718;BME280;32448;44.960;-0.698;2022-10-18T12:05:43;101758.47;;;22.90;100.00
46718;BME280;32448;44.960;-0.698;2022-10-18T12:08:15;101770.25;;;23.24;100.00
46718;BME280;32448;44.960;-0.698;2022-10-18T12:10:47;101747.13;;;23.24;100.00
46718;BME280;32448;44.960;-0.698;2022-10-18T12:13:51;101762.88;;;23.38;100.00
46718;BME280;32448;44.960;-0.698;2022-10-18T12:16:24;101764.28;;;23.57;100.00
46718;BME280;32448;44.960;-0.698;2022-10-18T12:19:19;101756.81;;;23.75;100.00
46718;BME280;32448;44.960;-0.698;2022-10-18T12:21:56;101742.94;;;23.57;100.00
46718;BME280;32448;44.960;-0.698;2022-10-18T12:24:27;101750.88;;;23.61;100.00
46718;BME280;32448;44.960;-0.698;2022-10-18T12:26:58;101750.66;;;23.71;100.00
46718;BME280;32448;44.960;-0.698;2022-10-18T12:31:58;101746.38;;;24.03;100.00
46718;BME280;32448;44.960;-0.698;2022-10-18T12:34:49;101747.25;;;24.03;100.00
46718;BME280;32448;44.960;-0.698;2022-10-18T12:40:18;101696.16;;;23.80;100.00
46718;BME280;32448;44.960;-0.698;2022-10-18T12:42:50;101731.28;;;24.00;100.00
46718;BME280;32448;44.960;-0.698;2022-10-18T12:45:30;101720.72;;;23.95;100.00
46718;BME280;32448;44.960;-0.698;2022-10-18T12:48:06;101723.44;;;24.31;100.00
46718;BME280;32448;44.960;-0.698;2022-10-18T12:50:39;101709.53;;;24.17;100.00
46718;BME280;32448;44.960;-0.698;2022-10-18T12:55:45;101695.28;;;24.16;100.00
46718;BME280;32448;44.960;-0.698;2022-10-18T13:16:25;101696.78;;;23.91;100.00
46718;BME280;32448;44.960;-0.698;2022-10-18T13:18:59;101678.09;;;23.91;100.00
46718;BME280;32448;44.960;-0.698;2022-10-18T13:27:24;101695.34;;;24.13;100.00
46718;BME280;32448;44.960;-0.698;2022-10-18T13:33:29;101681.59;;;23.93;100.00
46718;BME280;32448;44.960;-0.698;2022-10-18T13:38:59;101675.25;;;23.97;100.00
46718;BME280;32448;44.960;-0.698;2022-10-18T13:44:28;101673.63;;;23.91;100.00
46718;BME280;32448;44.960;-0.698;2022-10-18T13:53:21;101645.22;;;23.87;100.00
46718;BME280;32448;44.960;-0.698;2022-10-18T13:59:13;101668.56;;;24.16;100.00
46718;BME280;32448;44.960;-0.698;2022-10-18T14:06:58;101657.50;;;24.31;100.00
46718;BME280;32448;44.960;-0.698;2022-10-18T14:09:34;101659.31;;;24.31;100.00
46718;BME280;32448;44.960;-0.698;2022-10-18T14:12:34;101651.09;;;24.39;100.00
46718;BME280;32448;44.960;-0.698;2022-10-18T14:15:13;101630.94;;;24.27;100.00
46718;BME280;32448;44.960;-0.698;2022-10-18T14:17:50;101655.38;;;24.46;100.00
46718;BME280;32448;44.960;-0.698;2022-10-18T14:20:24;101648.69;;;24.62;100.00
46718;BME280;32448;44.960;-0.698;2022-10-18T14:25:49;101645.81;;;24.70;100.00
46718;BME280;32448;44.960;-0.698;2022-10-18T14:28:20;101616.63;;;24.62;100.00
46718;BME280;32448;44.960;-0.698;2022-10-18T14:31:13;101636.00;;;24.70;100.00
46718;BME280;32448;44.960;-0.698;2022-10-18T14:33:50;101652.03;;;24.70;100.00
46718;BME280;32448;44.960;-0.698;2022-10-18T14:36:25;101631.81;;;24.60;100.00
46718;BME280;32448;44.960;-0.698;2022-10-18T14:38:59;101610.09;;;24.72;100.00
46718;BME280;32448;44.960;-0.698;2022-10-18T14:47:00;101632.47;;;24.68;100.00
46718;BME280;32448;44.960;-0.698;2022-10-18T14:49:28;101624.88;;;24.53;100.00
46718;BME280;32448;44.960;-0.698;2022-10-18T14:51:57;101626.88;;;24.45;100.00
46718;BME280;32448;44.960;-0.698;2022-10-18T14:54:32;101625.25;;;24.39;100.00
46718;BME280;32448;44.960;-0.698;2022-10-18T14:57:05;101621.00;;;24.30;100.00
46718;BME280;32448;44.960;-0.698;2022-10-18T14:59:39;101616.03;;;24.17;100.00
46718;BME280;32448;44.960;-0.698;2022-10-18T15:02:13;101601.16;;;24.07;100.00
46718;BME280;32448;44.960;-0.698;2022-10-18T15:04:52;101623.03;;;24.21;100.00
46718;BME280;32448;44.960;-0.698;2022-10-18T15:07:21;101606.03;;;24.25;100.00
46718;BME280;32448;44.960;-0.698;2022-10-18T15:09:49;101598.16;;;24.19;100.00
46718;BME280;32448;44.960;-0.698;2022-10-18T15:12:16;101608.00;;;24.17;100.00
46718;BME280;32448;44.960;-0.698;2022-10-18T15:14:44;101602.44;;;24.26;100.00
46718;BME280;32448;44.960;-0.698;2022-10-18T15:20:18;101605.19;;;24.21;100.00
46718;BME280;32448;44.960;-0.698;2022-10-18T15:22:46;101600.06;;;24.14;100.00
46718;BME280;32448;44.960;-0.698;2022-10-18T15:25:28;101591.56;;;23.98;100.00
46718;BME280;32448;44.960;-0.698;2022-10-18T15:28:01;101605.06;;;23.92;100.00
46718;BME280;32448;44.960;-0.698;2022-10-18T15:30:37;101598.06;;;23.86;100.00
46718;BME280;32448;44.960;-0.698;2022-10-18T15:33:06;101600.84;;;23.83;100.00
46718;BME280;32448;44.960;-0.698;2022-10-18T15:35:38;101585.94;;;23.75;100.00
46718;BME280;32448;44.960;-0.698;2022-10-18T15:38:23;101586.75;;;23.77;100.00
46718;BME280;32448;44.960;-0.698;2022-10-18T15:40:51;101594.91;;;23.71;100.00
46718;BME280;32448;44.960;-0.698;2022-10-18T15:46:01;101583.72;;;23.55;100.00
46718;BME280;32448;44.960;-0.698;2022-10-18T15:51:04;101576.59;;;23.55;100.00
46718;BME280;32448;44.960;-0.698;2022-10-18T15:53:43;101553.59;;;23.51;100.00
46718;BME280;32448;44.960;-0.698;2022-10-18T15:56:37;101572.78;;;23.66;100.00
46718;BME280;32448;44.960;-0.698;2022-10-18T15:59:23;101563.97;;;23.64;100.00
46718;BME280;32448;44.960;-0.698;2022-10-18T16:01:53;101575.06;;;23.82;100.00
46718;BME280;32448;44.960;-0.698;2022-10-18T16:04:29;101585.94;;;23.75;100.00
46718;BME280;32448;44.960;-0.698;2022-10-18T16:06:58;101556.94;;;23.59;100.00
46718;BME280;32448;44.960;-0.698;2022-10-18T16:09:27;101576.06;;;23.77;100.00
46718;BME280;32448;44.960;-0.698;2022-10-18T16:11:55;101562.00;;;23.70;100.00
46718;BME280;32448;44.960;-0.698;2022-10-18T16:14:25;101570.06;;;23.69;100.00
46718;BME280;32448;44.960;-0.698;2022-10-18T16:16:59;101561.16;;;23.68;100.00
46718;BME280;32448;44.960;-0.698;2022-10-18T16:19:28;101561.16;;;23.68;100.00
46718;BME280;32448;44.960;-0.698;2022-10-18T16:21:55;101542.84;;;23.53;100.00
46718;BME280;32448;44.960;-0.698;2022-10-18T16:24:25;101561.38;;;23.59;100.00
46718;BME280;32448;44.960;-0.698;2022-10-18T16:26:52;101567.56;;;23.61;100.00
46718;BME280;32448;44.960;-0.698;2022-10-18T16:29:22;101568.59;;;23.55;100.00
46718;BME280;32448;44.960;-0.698;2022-10-18T16:31:54;101565.88;;;23.57;100.00
46718;BME280;32448;44.960;-0.698;2022-10-18T16:34:24;101569.63;;;23.50;100.00
46718;BME280;32448;44.960;-0.698;2022-10-18T16:36:55;101557.50;;;23.34;100.00
46718;BME280;32448;44.960;-0.698;2022-10-18T16:39:22;101568.06;;;23.40;100.00
46718;BME280;32448;44.960;-0.698;2022-10-18T16:41:49;101556.78;;;23.27;100.00
46718;BME280;32448;44.960;-0.698;2022-10-18T16:44:17;101566.59;;;23.25;100.00
46718;BME280;32448;44.960;-0.698;2022-10-18T16:46:45;101555.31;;;23.14;100.00
46718;BME280;32448;44.960;-0.698;2022-10-18T16:49:20;101573.97;;;23.14;100.00
46718;BME280;32448;44.960;-0.698;2022-10-18T16:51:51;101566.13;;;23.08;100.00
46718;BME280;32448;44.960;-0.698;2022-10-18T16:54:18;101548.72;;;22.90;100.00
46718;BME280;32448;44.960;-0.698;2022-10-18T16:56:45;101548.84;;;22.85;100.00
46718;BME280;32448;44.960;-0.698;2022-10-18T16:59:26;101566.63;;;22.83;100.00
46718;BME280;32448;44.960;-0.698;2022-10-18T17:01:54;101548.38;;;22.64;100.00
46718;BME280;32448;44.960;-0.698;2022-10-18T17:04:22;101567.72;;;22.72;100.00
46718;BME280;32448;44.960;-0.698;2022-10-18T17:06:49;101569.56;;;22.68;100.00
46718;BME280;32448;44.960;-0.698;2022-10-18T17:09:17;101566.25;;;22.57;100.00
46718;BME280;32448;44.960;-0.698;2022-10-18T17:11:44;101537.38;;;22.36;100.00
46718;BME280;32448;44.960;-0.698;2022-10-18T17:14:12;101557.72;;;22.40;100.00
46718;BME280;32448;44.960;-0.698;2022-10-18T17:16:38;101565.78;;;22.35;100.00
46718;BME280;32448;44.960;-0.698;2022-10-18T17:19:07;101571.28;;;22.26;100.00
46718;BME280;32448;44.960;-0.698;2022-10-18T17:21:36;101576.78;;;22.17;100.00
46718;BME280;32448;44.960;-0.698;2022-10-18T17:24:03;101568.09;;;22.07;100.00
46718;BME280;32448;44.960;-0.698;2022-10-18T17:26:32;101563.81;;;21.97;100.00
46718;BME280;32448;44.960;-0.698;2022-10-18T17:29:03;101567.44;;;21.92;100.00
46718;BME280;32448;44.960;-0.698;2022-10-18T17:31:31;101577.31;;;21.85;100.00
46718;BME280;32448;44.960;-0.698;2022-10-18T17:33:58;101578.31;;;21.76;100.00
46718;BME280;32448;44.960;-0.698;2022-10-18T17:36:29;101565.28;;;21.61;100.00
46718;BME280;32448;44.960;-0.698;2022-10-18T17:38:57;101578.63;;;21.58;100.00
46718;BME280;32448;44.960;-0.698;2022-10-18T17:41:24;101574.25;;;21.54;100.00
46718;BME280;32448;44.960;-0.698;2022-10-18T17:43:51;101567.28;;;21.47;100.00
46718;BME280;32448;44.960;-0.698;2022-10-18T17:46:19;101589.41;;;21.51;100.00
46718;BME280;32448;44.960;-0.698;2022-10-18T17:48:46;101578.84;;;21.44;100.00
46718;BME280;32448;44.960;-0.698;2022-10-18T17:51:15;101590.41;;;21.42;100.00
46718;BME280;32448;44.960;-0.698;2022-10-18T17:53:45;101559.72;;;21.15;100.00
46718;BME280;32448;44.960;-0.698;2022-10-18T17:56:13;101567.75;;;21.11;100.00
46718;BME280;32448;44.960;-0.698;2022-10-18T17:58:41;101572.25;;;21.07;100.00
46718;BME280;32448;44.960;-0.698;2022-10-18T18:01:19;101591.69;;;21.11;100.00
46718;BME280;32448;44.960;-0.698;2022-10-18T18:03:47;101597.09;;;21.06;100.00